createdAt,value
2023-11-25T00:00:42.727Z,0.50
2023-11-25T00:05:48.319Z,0.50
2023-11-25T00:10:52.391Z,0.80
2023-11-25T00:15:56.713Z,0.70
2023-11-25T00:21:02.139Z,0.67
2023-11-25T00:26:06.878Z,1.03
2023-11-25T00:31:10.974Z,0.70
2023-11-25T00:36:16.715Z,0.50
2023-11-25T00:41:21.023Z,0.40
2023-11-25T00:46:25.188Z,0.50
2023-11-25T00:51:30.482Z,0.87
2023-11-25T00:56:34.674Z,1.17
2023-11-25T01:01:38.805Z,0.70
2023-11-25T01:06:48.195Z,0.40
2023-11-25T01:11:52.594Z,0.60
2023-11-25T01:16:59.511Z,0.40
2023-11-25T01:22:05.526Z,0.13
2023-11-25T01:27:10.073Z,0.40
2023-11-25T01:32:15.319Z,0.40
2023-11-25T01:37:22.944Z,0.30
2023-11-25T01:42:27.197Z,0.40
2023-11-25T01:47:31.730Z,0.17
2023-11-25T01:52:37.824Z,0.40
2023-11-25T01:57:42.161Z,0.20
2023-11-25T02:02:47.523Z,0.27
2023-11-25T02:07:53.508Z,0.40
2023-11-25T02:12:57.902Z,0.20
2023-11-25T02:18:02.003Z,0.20
2023-11-25T02:23:17.381Z,0.27
2023-11-25T02:28:22.812Z,0.40
2023-11-25T02:33:33.940Z,0.50
2023-11-25T02:38:39.571Z,0.40
2023-11-25T02:43:43.687Z,0.50
2023-11-25T02:48:47.824Z,0.37
2023-11-25T02:53:53.829Z,0.20
2023-11-25T02:59:00.472Z,0.10
2023-11-25T03:04:06.881Z,0.30
2023-11-25T03:09:12.863Z,0.20
2023-11-25T03:14:17.973Z,0.30
2023-11-25T03:19:22.207Z,0.40
2023-11-25T03:24:28.443Z,0.20
2023-11-25T03:29:32.520Z,0.27
2023-11-25T03:34:36.729Z,0.10
2023-11-25T03:39:42.210Z,0.10
2023-11-25T03:44:46.339Z,0.40
2023-11-25T03:49:50.500Z,0.10
2023-11-25T03:54:55.985Z,0.30
2023-11-25T04:00:00.086Z,0.40
2023-11-25T04:05:04.136Z,0.20
2023-11-25T04:10:15.021Z,0.10
2023-11-25T04:15:21.821Z,0.30
2023-11-25T04:20:31.582Z,0.30
2023-11-25T04:25:39.937Z,0.20
2023-11-25T04:30:44.178Z,0.30
2023-11-25T04:35:48.194Z,0.20
2023-11-25T04:40:53.877Z,0.33
2023-11-25T04:45:58.136Z,0.47
2023-11-25T04:51:02.207Z,0.20
2023-11-25T04:56:09.617Z,0.20
2023-11-25T05:01:13.744Z,0.23
2023-11-25T05:06:18.022Z,0.30
2023-11-25T05:11:23.502Z,0.40
2023-11-25T05:16:27.675Z,0.40
2023-11-25T05:21:32.513Z,0.43
2023-11-25T05:26:38.217Z,0.30
2023-11-25T05:31:42.402Z,0.50
2023-11-25T05:36:46.548Z,0.80
2023-11-25T05:41:53.031Z,0.50
2023-11-25T05:46:58.048Z,1.60
2023-11-25T05:52:02.202Z,0.80
2023-11-25T05:57:08.173Z,0.60
2023-11-25T06:02:12.283Z,0.33
2023-11-25T06:07:16.714Z,0.10
2023-11-25T06:12:21.994Z,0.23
2023-11-25T06:17:26.367Z,0.70
2023-11-25T06:22:30.559Z,0.60
2023-11-25T06:27:36.137Z,0.80
2023-11-25T06:32:40.223Z,0.10
2023-11-25T06:37:44.551Z,0.20
2023-11-25T06:42:50.131Z,0.50
2023-11-25T06:47:55.775Z,0.50
2023-11-25T06:53:00.061Z,0.50
2023-11-25T06:58:05.700Z,0.40
2023-11-25T07:03:10.069Z,0.80
2023-11-25T07:08:14.628Z,0.80
2023-11-25T07:13:20.194Z,0.77
2023-11-25T07:18:24.445Z,0.80
2023-11-25T07:23:28.991Z,0.60
2023-11-25T07:28:35.254Z,0.80
2023-11-25T07:33:39.839Z,0.63
2023-11-25T07:38:43.916Z,0.97
2023-11-25T07:43:49.446Z,0.70
2023-11-25T07:48:53.581Z,0.50
2023-11-25T07:53:58.293Z,0.40
2023-11-25T07:59:04.065Z,1.17
2023-11-25T08:04:08.314Z,0.40
2023-11-25T08:09:13.534Z,0.87
2023-11-25T08:14:24.066Z,1.07
2023-11-25T08:19:28.153Z,0.77
2023-11-25T08:24:32.265Z,0.50
2023-11-25T08:29:39.344Z,0.60
2023-11-25T08:34:44.831Z,0.40
2023-11-25T08:39:48.913Z,1.10
2023-11-25T08:44:54.568Z,1.00
2023-11-25T08:49:59.036Z,0.70
2023-11-25T08:55:04.583Z,0.60
2023-11-25T09:00:16.569Z,2.30
2023-11-25T09:05:23.524Z,1.10
2023-11-25T09:10:28.315Z,0.83
2023-11-25T09:15:41.471Z,0.87
2023-11-25T09:20:46.878Z,0.90
2023-11-25T09:25:51.720Z,0.60
2023-11-25T09:30:57.170Z,0.60
2023-11-25T09:36:01.851Z,0.83
2023-11-25T09:41:07.309Z,0.67
2023-11-25T09:46:17.525Z,0.80
2023-11-25T09:51:26.290Z,0.63
2023-11-25T09:56:30.415Z,1.37
2023-11-25T10:01:40.842Z,0.60
2023-11-25T10:06:46.806Z,0.90
2023-11-25T10:11:52.114Z,1.03
2023-11-25T10:16:58.948Z,1.20
2023-11-25T10:22:06.008Z,1.70
2023-11-25T10:27:13.040Z,1.10
2023-11-25T10:32:18.838Z,1.00
2023-11-25T10:37:26.238Z,1.40
2023-11-25T10:42:31.528Z,1.20
2023-11-25T10:47:37.449Z,1.03
2023-11-25T10:52:44.762Z,1.33
2023-11-25T10:57:49.399Z,1.13
2023-11-25T11:02:58.447Z,0.87
2023-11-25T11:08:08.282Z,1.03
2023-11-25T11:13:14.911Z,1.50
2023-11-25T11:18:28.712Z,2.23
2023-11-25T11:23:38.528Z,0.53
2023-11-25T11:28:48.339Z,0.93
2023-11-25T11:33:54.666Z,0.43
2023-11-25T11:39:01.050Z,1.07
2023-11-25T11:44:05.936Z,0.90
2023-11-25T11:49:13.496Z,0.77
2023-11-25T11:54:29.594Z,0.60
2023-11-25T12:00:00.399Z,0.57
2023-11-25T12:05:08.187Z,0.80
2023-11-25T12:10:13.744Z,1.97
2023-11-25T12:15:19.050Z,1.07
2023-11-25T12:20:27.736Z,1.80
2023-11-25T12:25:34.124Z,0.80
2023-11-25T12:30:39.737Z,1.10
2023-11-25T12:35:46.306Z,1.20
2023-11-25T12:40:50.999Z,1.60
2023-11-25T12:45:55.061Z,1.03
2023-11-25T12:51:08.034Z,2.60
2023-11-25T12:56:15.688Z,1.47
2023-11-25T13:01:26.368Z,1.43
2023-11-25T13:06:32.173Z,1.67
2023-11-25T13:11:36.536Z,1.67
2023-11-25T13:16:41.241Z,0.93
2023-11-25T13:21:47.535Z,2.50
2023-11-25T13:26:51.820Z,1.23
2023-11-25T13:31:55.983Z,1.30
2023-11-25T13:37:01.520Z,0.70
2023-11-25T13:42:06.930Z,1.50
2023-11-25T13:47:11.256Z,1.63
2023-11-25T13:52:16.883Z,1.53
2023-11-25T13:57:21.378Z,1.40
2023-11-25T14:02:28.836Z,1.50
2023-11-25T14:07:34.986Z,1.80
2023-11-25T14:12:40.296Z,1.63
2023-11-25T14:17:45.301Z,2.03
2023-11-25T14:22:51.672Z,1.33
2023-11-25T14:27:56.726Z,1.80
2023-11-25T14:33:01.508Z,1.33
2023-11-25T14:38:07.535Z,1.83
2023-11-25T14:43:11.838Z,0.90
2023-11-25T14:48:16.489Z,4.10
2023-11-25T14:53:22.955Z,3.23
2023-11-25T14:58:27.647Z,1.77
2023-11-25T15:03:32.735Z,1.47
2023-11-25T15:08:38.725Z,1.53
2023-11-25T15:13:43.104Z,0.83
2023-11-25T15:18:47.334Z,1.47
2023-11-25T15:23:52.827Z,2.43
2023-11-25T15:28:59.623Z,2.60
2023-11-25T15:34:04.467Z,1.50
2023-11-25T15:39:13.805Z,2.13
2023-11-25T15:44:17.955Z,2.20
2023-11-25T15:49:23.064Z,1.07
2023-11-25T15:54:28.596Z,1.97
2023-11-25T15:59:33.379Z,2.33
2023-11-25T16:04:39.656Z,3.00
2023-11-25T16:09:45.584Z,1.10
2023-11-25T16:14:49.779Z,2.70
2023-11-25T16:19:54.198Z,1.60
2023-11-25T16:25:00.205Z,2.23
2023-11-25T16:30:06.294Z,1.97
2023-11-25T16:35:14.668Z,2.57
2023-11-25T16:40:22.441Z,1.87
2023-11-25T16:45:26.783Z,1.60
2023-11-25T16:50:31.028Z,3.77
2023-11-25T16:55:36.960Z,1.53
2023-11-25T17:00:41.259Z,1.20
2023-11-25T17:05:45.677Z,2.50
2023-11-25T17:10:51.473Z,2.07
2023-11-25T17:15:55.834Z,2.47
2023-11-25T17:20:59.989Z,1.70
2023-11-25T17:26:07.027Z,2.40
2023-11-25T17:31:12.809Z,2.13
2023-11-25T17:36:17.629Z,1.07
2023-11-25T17:41:28.513Z,1.20
2023-11-25T17:46:34.755Z,0.90
2023-11-25T17:51:39.530Z,1.27
2023-11-25T17:56:45.393Z,1.93
2023-11-25T18:01:49.823Z,1.40
2023-11-25T18:06:54.352Z,1.47
2023-11-25T18:12:00.073Z,2.07
2023-11-25T18:17:04.309Z,1.77
2023-11-25T18:22:08.700Z,2.90
2023-11-25T18:27:14.718Z,1.23
2023-11-25T18:32:18.861Z,1.50
2023-11-25T18:37:23.557Z,2.30
2023-11-25T18:42:29.567Z,2.77
2023-11-25T18:47:33.814Z,2.90
2023-11-25T18:52:39.587Z,1.70
2023-11-25T18:57:45.377Z,0.97
2023-11-25T19:02:51.167Z,2.60
2023-11-25T19:07:55.424Z,1.67
2023-11-25T19:13:01.317Z,2.17
2023-11-25T19:18:06.809Z,2.60
2023-11-25T19:23:11.371Z,2.47
2023-11-25T19:28:16.644Z,1.87
2023-11-25T19:33:20.886Z,1.07
2023-11-25T19:38:25.017Z,1.37
2023-11-25T19:43:30.858Z,2.80
2023-11-25T19:48:37.135Z,2.70
2023-11-25T19:53:50.435Z,3.37
2023-11-25T19:59:00.574Z,1.67
2023-11-25T20:04:04.882Z,2.07
2023-11-25T20:09:10.131Z,1.90
2023-11-25T20:14:15.835Z,1.37
2023-11-25T20:19:20.191Z,0.80
2023-11-25T20:24:24.939Z,2.07
2023-11-25T20:29:30.370Z,2.23
2023-11-25T20:34:35.009Z,2.30
2023-11-25T20:39:39.100Z,1.03
2023-11-25T20:44:44.675Z,2.07
2023-11-25T20:49:49.097Z,2.10
2023-11-25T20:54:53.204Z,1.47
2023-11-25T20:59:59.722Z,1.13
2023-11-25T21:05:05.863Z,1.90
2023-11-25T21:10:11.261Z,2.90
2023-11-25T21:15:17.037Z,2.20
2023-11-25T21:20:22.410Z,2.40
2023-11-25T21:25:26.536Z,2.50
2023-11-25T21:30:32.647Z,2.57
2023-11-25T21:35:36.779Z,2.80
2023-11-25T21:40:41.649Z,3.13
2023-11-25T21:45:48.756Z,3.03
2023-11-25T21:50:53.051Z,2.83
2023-11-25T21:55:57.356Z,2.50
2023-11-25T22:01:04.998Z,2.90
2023-11-25T22:06:10.165Z,1.50
2023-11-25T22:11:14.451Z,2.10
2023-11-25T22:16:20.222Z,2.00
2023-11-25T22:21:24.570Z,2.47
2023-11-25T22:26:34.271Z,2.60
2023-11-25T22:31:39.920Z,2.50
2023-11-25T22:36:44.202Z,2.47
2023-11-25T22:41:48.030Z,2.77
2023-11-25T22:46:54.208Z,2.50
2023-11-25T22:51:58.374Z,2.50
2023-11-25T22:57:02.475Z,2.30
2023-11-25T23:02:08.839Z,2.60
2023-11-25T23:07:13.365Z,2.80
2023-11-25T23:12:18.104Z,3.63
2023-11-25T23:17:23.640Z,3.67
2023-11-25T23:22:27.757Z,3.73
2023-11-25T23:27:32.299Z,2.37
2023-11-25T23:32:38.831Z,2.33
2023-11-25T23:37:44.501Z,2.07
2023-11-25T23:42:48.622Z,1.80
2023-11-25T23:47:55.343Z,1.50
2023-11-25T23:52:59.814Z,1.30
2023-11-25T23:58:05.566Z,1.70
